createdAt,value
2018-09-20T00:00:29.715Z,22.80
2018-09-20T00:02:57.375Z,22.80
2018-09-20T00:05:25.011Z,22.70
2018-09-20T00:07:52.612Z,22.60
2018-09-20T00:10:20.266Z,22.60
2018-09-20T00:12:47.989Z,22.60
2018-09-20T00:15:15.675Z,22.60
2018-09-20T00:17:43.285Z,22.50
2018-09-20T00:20:10.927Z,22.50
2018-09-20T00:22:38.546Z,22.50
2018-09-20T00:25:06.317Z,22.30
2018-09-20T00:27:33.957Z,22.20
2018-09-20T00:30:01.628Z,22.20
2018-09-20T00:32:29.278Z,22.20
2018-09-20T00:34:57.000Z,22.30
2018-09-20T00:37:24.576Z,22.10
2018-09-20T00:39:52.151Z,22.00
2018-09-20T00:42:19.763Z,21.90
2018-09-20T00:44:47.456Z,21.90
2018-09-20T00:47:15.086Z,21.70
2018-09-20T00:49:42.746Z,21.70
2018-09-20T00:52:10.385Z,21.50
2018-09-20T00:54:38.106Z,21.70
2018-09-20T00:57:05.847Z,21.40
2018-09-20T00:59:33.495Z,21.50
2018-09-20T01:02:01.137Z,21.80
2018-09-20T01:04:28.851Z,21.70
2018-09-20T01:06:57.300Z,21.70
2018-09-20T01:09:24.948Z,21.70
2018-09-20T01:11:52.615Z,21.60
2018-09-20T01:14:20.237Z,21.60
2018-09-20T01:16:47.899Z,21.20
2018-09-20T01:19:15.598Z,21.50
2018-09-20T01:21:43.282Z,21.40
2018-09-20T01:24:10.947Z,21.40
2018-09-20T01:26:38.572Z,21.30
2018-09-20T01:29:06.238Z,21.40
2018-09-20T01:31:33.891Z,21.50
2018-09-20T01:34:01.496Z,21.40
2018-09-20T01:36:29.225Z,21.50
2018-09-20T01:38:56.866Z,20.90
2018-09-20T01:41:24.482Z,21.10
2018-09-20T01:43:52.099Z,21.10
2018-09-20T01:46:19.708Z,21.20
2018-09-20T01:48:47.306Z,20.70
2018-09-20T01:51:15.063Z,20.60
2018-09-20T01:53:42.711Z,20.40
2018-09-20T01:56:14.910Z,20.50
2018-09-20T01:58:43.482Z,20.40
2018-09-20T02:01:11.127Z,20.40
2018-09-20T02:03:38.771Z,20.50
2018-09-20T02:06:06.555Z,20.40
2018-09-20T02:08:34.369Z,20.40
2018-09-20T02:11:02.027Z,20.30
2018-09-20T02:13:29.699Z,20.60
2018-09-20T02:15:57.390Z,20.70
2018-09-20T02:18:25.071Z,20.60
2018-09-20T02:20:52.691Z,20.60
2018-09-20T02:23:20.303Z,20.50
2018-09-20T02:25:47.915Z,20.50
2018-09-20T02:28:15.620Z,20.50
2018-09-20T02:30:43.211Z,20.40
2018-09-20T02:33:10.880Z,20.40
2018-09-20T02:35:38.773Z,20.10
2018-09-20T02:38:06.368Z,20.00
2018-09-20T02:40:34.086Z,19.80
2018-09-20T02:43:01.710Z,19.80
2018-09-20T02:45:29.314Z,19.80
2018-09-20T02:47:56.971Z,20.10
2018-09-20T02:50:24.704Z,19.80
2018-09-20T02:52:52.322Z,19.80
2018-09-20T02:55:19.915Z,19.50
2018-09-20T02:57:47.778Z,19.60
2018-09-20T03:00:15.430Z,19.70
2018-09-20T03:02:43.106Z,19.70
2018-09-20T03:05:10.727Z,19.70
2018-09-20T03:07:38.355Z,19.80
2018-09-20T03:10:06.029Z,20.00
2018-09-20T03:12:33.769Z,20.00
2018-09-20T03:15:01.413Z,20.40
2018-09-20T03:17:28.999Z,20.20
2018-09-20T03:19:56.645Z,20.40
2018-09-20T03:22:24.293Z,19.90
2018-09-20T03:24:51.898Z,20.40
2018-09-20T03:27:19.627Z,20.30
2018-09-20T03:29:47.250Z,20.20
2018-09-20T03:32:14.947Z,20.00
2018-09-20T03:34:42.638Z,19.70
2018-09-20T03:37:10.270Z,19.70
2018-09-20T03:39:37.914Z,19.70
2018-09-20T03:42:05.558Z,19.90
2018-09-20T03:44:33.159Z,19.90
2018-09-20T03:47:00.849Z,19.90
2018-09-20T03:49:28.443Z,19.70
2018-09-20T03:51:56.107Z,19.80
2018-09-20T03:54:23.787Z,19.90
2018-09-20T03:56:51.542Z,19.80
2018-09-20T03:59:19.211Z,20.20
2018-09-20T04:01:46.866Z,20.00
2018-09-20T04:04:14.485Z,19.90
2018-09-20T04:06:42.195Z,19.80
2018-09-20T04:09:11.049Z,19.60
2018-09-20T04:11:38.826Z,19.70
2018-09-20T04:14:06.426Z,19.80
2018-09-20T04:16:34.075Z,19.80
2018-09-20T04:19:01.693Z,20.00
2018-09-20T04:21:31.932Z,19.80
2018-09-20T04:24:00.401Z,20.30
2018-09-20T04:26:28.639Z,20.20
2018-09-20T04:28:56.454Z,20.10
2018-09-20T04:31:24.437Z,20.10
2018-09-20T04:33:52.059Z,20.10
2018-09-20T04:36:19.799Z,20.10
2018-09-20T04:38:47.391Z,19.80
2018-09-20T04:41:14.912Z,20.00
2018-09-20T04:43:42.571Z,19.80
2018-09-20T04:46:10.266Z,19.70
2018-09-20T04:48:37.910Z,19.90
2018-09-20T04:51:05.543Z,20.10
2018-09-20T04:53:33.162Z,19.90
2018-09-20T04:56:00.758Z,20.10
2018-09-20T04:58:28.491Z,20.10
2018-09-20T05:00:56.103Z,20.00
2018-09-20T05:03:23.741Z,20.10
2018-09-20T05:05:51.426Z,20.00
2018-09-20T05:08:19.032Z,19.70
2018-09-20T05:10:46.734Z,20.00
2018-09-20T05:13:14.702Z,20.00
2018-09-20T05:15:42.267Z,19.70
2018-09-20T05:18:09.942Z,20.10
2018-09-20T05:20:37.506Z,20.10
2018-09-20T05:23:05.158Z,20.10
2018-09-20T05:25:32.771Z,20.10
2018-09-20T05:28:00.394Z,20.10
2018-09-20T05:30:28.040Z,20.10
2018-09-20T05:32:55.690Z,20.20
2018-09-20T05:35:23.285Z,19.40
2018-09-20T05:37:50.919Z,19.70
2018-09-20T05:40:18.727Z,19.70
2018-09-20T05:42:46.354Z,19.90
2018-09-20T05:45:14.021Z,19.90
2018-09-20T05:47:41.680Z,19.80
2018-09-20T05:50:09.323Z,19.80
2018-09-20T05:52:37.846Z,20.00
2018-09-20T05:55:05.466Z,19.70
2018-09-20T05:57:33.147Z,19.60
2018-09-20T06:00:00.766Z,19.80
2018-09-20T06:02:28.489Z,20.20
2018-09-20T06:04:56.289Z,19.80
2018-09-20T06:07:24.003Z,19.90
2018-09-20T06:09:51.630Z,19.90
2018-09-20T06:12:19.229Z,20.10
2018-09-20T06:14:46.854Z,20.00
2018-09-20T06:17:14.582Z,20.10
2018-09-20T06:19:42.328Z,20.20
2018-09-20T06:22:10.284Z,20.40
2018-09-20T06:24:38.088Z,20.40
2018-09-20T06:27:05.881Z,20.50
2018-09-20T06:29:34.362Z,20.60
2018-09-20T06:32:01.974Z,20.40
2018-09-20T06:34:29.630Z,20.30
2018-09-20T06:36:57.201Z,20.60
2018-09-20T06:39:24.888Z,20.40
2018-09-20T06:41:52.638Z,20.60
2018-09-20T06:44:20.359Z,20.80
2018-09-20T06:46:48.068Z,21.00
2018-09-20T06:49:15.751Z,21.10
2018-09-20T06:51:43.551Z,21.80
2018-09-20T06:54:11.242Z,22.60
2018-09-20T06:56:38.922Z,23.30
2018-09-20T06:59:06.643Z,24.00
2018-09-20T07:01:34.320Z,23.80
2018-09-20T07:04:01.963Z,23.30
2018-09-20T07:06:29.547Z,23.60
2018-09-20T07:08:57.601Z,23.80
2018-09-20T07:11:25.238Z,23.80
2018-09-20T07:13:53.108Z,24.00
2018-09-20T07:16:20.699Z,24.70
2018-09-20T07:18:48.427Z,24.70
2018-09-20T07:21:16.115Z,25.10
2018-09-20T07:23:43.700Z,25.80
2018-09-20T07:26:11.475Z,26.10
2018-09-20T07:28:39.291Z,27.00
2018-09-20T07:31:06.993Z,27.60
2018-09-20T07:33:34.639Z,28.30
2018-09-20T07:36:02.248Z,29.10
2018-09-20T07:38:29.848Z,29.70
2018-09-20T07:40:57.578Z,29.90
2018-09-20T07:43:25.222Z,29.50
2018-09-20T07:45:52.832Z,29.20
2018-09-20T07:48:21.303Z,29.20
2018-09-20T07:50:48.870Z,28.90
2018-09-20T07:53:16.495Z,29.40
2018-09-20T07:55:44.154Z,29.30
2018-09-20T07:58:11.850Z,28.90
2018-09-20T08:00:39.866Z,28.80
2018-09-20T08:03:07.562Z,29.50
2018-09-20T08:05:35.138Z,30.60
2018-09-20T08:08:03.562Z,31.30
2018-09-20T08:10:31.391Z,31.30
2018-09-20T08:12:59.096Z,30.50
2018-09-20T08:15:26.836Z,30.50
2018-09-20T08:17:54.652Z,30.90
2018-09-20T08:20:22.283Z,31.60
2018-09-20T08:22:50.094Z,31.30
2018-09-20T08:25:17.753Z,31.30
2018-09-20T08:27:45.471Z,31.40
2018-09-20T08:30:13.447Z,32.00
2018-09-20T08:32:41.070Z,32.40
2018-09-20T08:35:08.719Z,32.40
2018-09-20T08:37:36.389Z,31.60
2018-09-20T08:40:04.054Z,31.50
2018-09-20T08:42:31.687Z,31.10
2018-09-20T08:44:59.788Z,31.20
2018-09-20T08:47:27.498Z,31.30
2018-09-20T08:49:55.238Z,31.60
2018-09-20T08:52:22.858Z,32.50
2018-09-20T08:54:50.508Z,32.30
2018-09-20T08:57:18.126Z,32.00
2018-09-20T08:59:45.855Z,32.00
2018-09-20T09:02:13.502Z,31.70
2018-09-20T09:04:41.288Z,31.60
2018-09-20T09:07:08.999Z,31.30
2018-09-20T09:09:36.662Z,31.40
2018-09-20T09:12:04.592Z,31.80
2018-09-20T09:14:32.295Z,31.70
2018-09-20T09:16:59.899Z,31.90
2018-09-20T09:19:27.658Z,32.30
2018-09-20T09:21:55.356Z,32.50
2018-09-20T09:24:23.020Z,32.40
2018-09-20T09:26:50.789Z,32.80
2018-09-20T09:29:18.402Z,32.20
2018-09-20T09:31:46.027Z,31.70
2018-09-20T09:34:13.770Z,30.80
2018-09-20T09:36:41.386Z,31.20
2018-09-20T09:39:10.521Z,32.00
2018-09-20T09:41:38.168Z,31.60
2018-09-20T09:44:05.989Z,31.40
2018-09-20T09:46:33.671Z,30.80
2018-09-20T09:49:01.282Z,30.10
2018-09-20T09:51:29.047Z,29.80
2018-09-20T09:53:56.748Z,29.90
2018-09-20T09:56:24.395Z,29.70
2018-09-20T09:58:52.041Z,29.60
2018-09-20T10:01:19.676Z,29.30
2018-09-20T10:03:47.319Z,29.20
2018-09-20T10:06:15.036Z,29.20
2018-09-20T10:08:42.898Z,29.00
2018-09-20T10:11:10.491Z,29.20
2018-09-20T10:13:38.205Z,29.40
2018-09-20T10:16:05.909Z,29.50
2018-09-20T10:18:33.520Z,29.40
2018-09-20T10:21:01.106Z,29.60
2018-09-20T10:23:28.770Z,29.50
2018-09-20T10:25:56.450Z,29.50
2018-09-20T10:28:24.075Z,29.70
2018-09-20T10:30:51.682Z,29.80
2018-09-20T10:33:19.258Z,30.20
2018-09-20T10:35:46.858Z,30.50
2018-09-20T10:38:14.546Z,30.50
2018-09-20T10:40:42.194Z,30.50
2018-09-20T10:43:09.875Z,30.10
2018-09-20T10:45:37.563Z,30.10
2018-09-20T10:48:05.199Z,30.30
2018-09-20T10:50:33.654Z,30.00
2018-09-20T10:53:01.300Z,30.00
2018-09-20T10:55:28.938Z,30.20
2018-09-20T10:57:56.656Z,30.10
2018-09-20T11:00:24.314Z,29.90
2018-09-20T11:02:51.959Z,29.80
2018-09-20T11:05:19.582Z,29.70
2018-09-20T11:07:47.279Z,29.80
2018-09-20T11:10:14.929Z,30.00
2018-09-20T11:12:42.546Z,29.70
2018-09-20T11:15:10.243Z,29.80
2018-09-20T11:17:37.918Z,29.80
2018-09-20T11:20:05.898Z,30.00
2018-09-20T11:22:33.534Z,30.30
2018-09-20T11:25:01.220Z,30.40
2018-09-20T11:27:28.883Z,30.00
2018-09-20T11:29:56.568Z,29.90
2018-09-20T11:32:24.243Z,30.10
2018-09-20T11:34:51.924Z,30.40
2018-09-20T11:37:19.570Z,30.60
2018-09-20T11:39:47.198Z,31.00
2018-09-20T11:42:14.839Z,31.20
2018-09-20T11:44:42.481Z,31.20
2018-09-20T11:47:10.207Z,30.80
2018-09-20T11:49:37.807Z,30.70
2018-09-20T11:55:58.353Z,30.70
2018-09-20T11:58:26.003Z,30.60
2018-09-20T12:00:53.680Z,30.70
2018-09-20T12:03:21.260Z,30.80
2018-09-20T12:05:48.834Z,30.90
2018-09-20T12:08:16.477Z,30.80
2018-09-20T12:10:44.127Z,30.90
2018-09-20T12:13:11.782Z,30.90
2018-09-20T12:15:39.391Z,30.80
2018-09-20T12:18:07.249Z,30.40
2018-09-20T12:20:34.927Z,30.30
2018-09-20T12:23:02.678Z,30.20
2018-09-20T12:25:30.299Z,30.10
2018-09-20T12:27:57.898Z,30.00
2018-09-20T12:30:25.592Z,30.00
2018-09-20T12:32:53.294Z,30.10
2018-09-20T12:35:20.865Z,30.40
2018-09-20T12:37:48.539Z,30.60
2018-09-20T12:40:16.144Z,30.50
2018-09-20T12:42:43.894Z,30.40
2018-09-20T12:45:11.535Z,30.40
2018-09-20T12:47:39.303Z,30.40
2018-09-20T12:50:07.168Z,30.30
2018-09-20T12:52:34.912Z,30.10
2018-09-20T12:55:02.799Z,30.10
2018-09-20T12:57:30.453Z,30.00
2018-09-20T12:59:58.089Z,30.10
2018-09-20T13:02:25.766Z,29.90
2018-09-20T13:04:53.463Z,29.90
2018-09-20T13:07:21.233Z,30.10
2018-09-20T13:09:49.057Z,30.20
2018-09-20T13:12:17.351Z,30.30
2018-09-20T13:14:45.414Z,30.50
2018-09-20T13:17:13.068Z,30.40
2018-09-20T13:19:40.741Z,30.30
2018-09-20T13:22:08.715Z,30.10
2018-09-20T13:24:37.187Z,30.30
2018-09-20T13:27:05.827Z,30.30
2018-09-20T13:29:33.812Z,30.50
2018-09-20T13:32:01.420Z,30.60
2018-09-20T13:34:29.095Z,30.60
2018-09-20T13:36:56.991Z,30.50
2018-09-20T13:39:24.906Z,30.40
2018-09-20T13:41:52.541Z,30.20
2018-09-20T13:44:20.179Z,30.10
2018-09-20T13:46:47.859Z,30.10
2018-09-20T13:49:15.879Z,30.10
2018-09-20T13:51:43.642Z,30.10
2018-09-20T13:54:11.358Z,30.30
2018-09-20T13:56:39.091Z,30.10
2018-09-20T13:59:06.686Z,30.00
2018-09-20T14:01:34.414Z,30.10
2018-09-20T14:04:02.138Z,30.10
2018-09-20T14:06:29.740Z,30.10
2018-09-20T14:08:57.282Z,30.10
2018-09-20T14:11:24.922Z,30.00
2018-09-20T14:13:52.703Z,30.00
2018-09-20T14:16:20.333Z,30.00
2018-09-20T14:18:48.079Z,30.00
2018-09-20T14:21:15.689Z,29.90
2018-09-20T14:23:43.380Z,30.00
2018-09-20T14:26:10.962Z,30.00
2018-09-20T14:28:38.595Z,29.90
2018-09-20T14:31:06.244Z,30.00
2018-09-20T14:33:33.863Z,30.00
2018-09-20T14:36:01.503Z,30.10
2018-09-20T14:38:29.132Z,30.00
2018-09-20T14:40:56.821Z,29.80
2018-09-20T14:43:24.473Z,29.90
2018-09-20T14:45:52.067Z,29.90
2018-09-20T14:48:19.680Z,29.90
2018-09-20T14:50:47.321Z,29.90
2018-09-20T14:53:14.967Z,29.90
2018-09-20T14:55:42.594Z,29.90
2018-09-20T14:58:10.204Z,30.00
2018-09-20T15:00:37.870Z,30.00
2018-09-20T15:03:05.538Z,29.80
2018-09-20T15:05:33.215Z,29.80
2018-09-20T15:08:00.883Z,29.70
2018-09-20T15:10:28.511Z,29.70
2018-09-20T15:12:56.119Z,29.70
2018-09-20T15:15:23.742Z,29.70
2018-09-20T15:17:51.337Z,29.80
2018-09-20T15:20:19.019Z,29.90
2018-09-20T15:22:46.675Z,29.90
2018-09-20T15:25:14.317Z,29.80
2018-09-20T15:27:41.967Z,29.70
2018-09-20T15:30:09.734Z,29.70
2018-09-20T15:32:37.352Z,29.70
2018-09-20T15:35:05.170Z,29.70
2018-09-20T15:37:32.831Z,29.80
2018-09-20T15:40:00.495Z,29.70
2018-09-20T15:42:28.118Z,29.70
2018-09-20T15:44:55.682Z,29.70
2018-09-20T15:47:23.438Z,29.90
2018-09-20T15:49:51.035Z,29.90
2018-09-20T15:52:18.898Z,30.00
2018-09-20T15:54:47.414Z,29.90
2018-09-20T15:57:15.018Z,29.80
2018-09-20T15:59:42.665Z,29.70
2018-09-20T16:02:10.299Z,29.60
2018-09-20T16:04:37.923Z,29.50
2018-09-20T16:07:05.559Z,29.50
2018-09-20T16:09:33.141Z,29.50
2018-09-20T16:12:00.755Z,29.50
2018-09-20T16:14:28.447Z,29.50
2018-09-20T16:16:56.095Z,29.40
2018-09-20T16:19:23.766Z,29.40
2018-09-20T16:21:51.414Z,29.40
2018-09-20T16:24:19.104Z,29.40
2018-09-20T16:26:46.743Z,29.30
2018-09-20T16:29:27.303Z,29.10
2018-09-20T16:32:47.775Z,29.00
2018-09-20T16:35:29.069Z,28.90
2018-09-20T16:38:13.651Z,28.80
2018-09-20T16:40:44.090Z,28.80
2018-09-20T16:43:11.800Z,28.70
2018-09-20T16:45:39.491Z,28.80
2018-09-20T16:48:07.179Z,28.80
2018-09-20T16:50:34.771Z,28.80
2018-09-20T16:53:02.388Z,28.70
2018-09-20T16:55:30.102Z,28.70
2018-09-20T16:57:57.735Z,28.70
2018-09-20T17:00:25.419Z,28.60
2018-09-20T17:02:53.127Z,28.60
2018-09-20T17:05:20.727Z,28.50
2018-09-20T17:07:48.356Z,28.50
2018-09-20T17:10:16.043Z,28.40
2018-09-20T17:12:43.727Z,28.40
2018-09-20T17:15:11.564Z,28.30
2018-09-20T17:17:38.971Z,28.20
2018-09-20T17:20:06.735Z,28.10
2018-09-20T17:22:34.273Z,28.10
2018-09-20T17:25:01.904Z,28.00
2018-09-20T17:27:29.554Z,27.90
2018-09-20T17:29:57.203Z,27.80
2018-09-20T17:32:24.812Z,27.70
2018-09-20T17:34:52.583Z,27.70
2018-09-20T17:37:21.439Z,27.60
2018-09-20T17:39:50.729Z,27.60
2018-09-20T17:42:19.251Z,27.50
2018-09-20T17:44:46.995Z,27.50
2018-09-20T17:47:14.707Z,27.50
2018-09-20T17:49:42.350Z,27.40
2018-09-20T17:52:10.423Z,27.30
2018-09-20T17:54:38.460Z,27.20
2018-09-20T17:57:06.878Z,27.20
2018-09-20T17:59:34.567Z,27.20
2018-09-20T18:02:02.219Z,27.10
2018-09-20T18:04:29.879Z,27.10
2018-09-20T18:06:57.621Z,27.00
2018-09-20T18:09:25.317Z,26.90
2018-09-20T18:11:52.877Z,26.90
2018-09-20T18:14:20.524Z,26.80
2018-09-20T18:16:48.205Z,26.70
2018-09-20T18:19:16.327Z,26.60
2018-09-20T18:21:44.004Z,26.50
2018-09-20T18:24:11.654Z,26.40
2018-09-20T18:26:39.265Z,26.40
2018-09-20T18:29:06.882Z,26.30
2018-09-20T18:31:34.599Z,26.30
2018-09-20T18:34:02.305Z,26.20
2018-09-20T18:36:30.034Z,26.30
2018-09-20T18:38:57.691Z,26.20
2018-09-20T18:41:25.375Z,26.00
2018-09-20T18:43:53.019Z,26.00
2018-09-20T18:46:20.642Z,26.10
2018-09-20T18:48:48.274Z,26.00
2018-09-20T18:51:16.324Z,25.90
2018-09-20T18:53:43.972Z,25.90
2018-09-20T18:56:12.337Z,25.90
2018-09-20T18:58:40.121Z,25.80
2018-09-20T19:01:07.891Z,25.70
2018-09-20T19:03:35.416Z,25.70
2018-09-20T19:06:03.114Z,25.60
2018-09-20T19:08:30.752Z,25.50
2018-09-20T19:10:58.441Z,25.60
2018-09-20T19:13:26.265Z,25.50
2018-09-20T19:15:53.934Z,25.50
2018-09-20T19:18:21.573Z,25.50
2018-09-20T19:20:49.284Z,25.50
2018-09-20T19:23:16.870Z,25.40
2018-09-20T19:25:44.538Z,25.30
2018-09-20T19:28:12.167Z,25.20
2018-09-20T19:30:39.788Z,25.10
2018-09-20T19:33:07.411Z,25.10
2018-09-20T19:35:35.069Z,25.10
2018-09-20T19:38:02.624Z,25.10
2018-09-20T19:40:30.246Z,25.10
2018-09-20T19:42:57.992Z,25.00
2018-09-20T19:45:25.697Z,24.90
2018-09-20T19:47:53.403Z,24.90
2018-09-20T19:50:21.055Z,24.90
2018-09-20T19:52:48.731Z,24.70
2018-09-20T19:55:16.499Z,24.60
2018-09-20T19:57:44.783Z,24.40
2018-09-20T20:00:12.627Z,24.40
2018-09-20T20:02:40.298Z,24.40
2018-09-20T20:05:07.935Z,24.50
2018-09-20T20:07:35.671Z,24.40
2018-09-20T20:10:03.451Z,24.30
2018-09-20T20:12:31.071Z,24.40
2018-09-20T20:14:58.726Z,24.30
2018-09-20T20:17:26.559Z,24.30
2018-09-20T20:19:54.366Z,24.20
2018-09-20T20:22:22.022Z,24.10
2018-09-20T20:24:49.668Z,24.10
2018-09-20T20:27:17.315Z,24.00
2018-09-20T20:29:45.079Z,24.00
2018-09-20T20:32:12.839Z,24.00
2018-09-20T20:34:40.534Z,24.10
2018-09-20T20:37:08.223Z,24.10
2018-09-20T20:39:35.955Z,24.00
2018-09-20T20:42:03.578Z,23.90
2018-09-20T20:44:31.177Z,23.90
2018-09-20T20:46:58.845Z,23.90
2018-09-20T20:49:26.586Z,23.80
2018-09-20T20:51:54.260Z,23.80
2018-09-20T20:54:21.834Z,23.80
2018-09-20T20:56:49.519Z,23.70
2018-09-20T20:59:17.101Z,23.70
2018-09-20T21:01:44.767Z,23.60
2018-09-20T21:04:12.385Z,23.60
2018-09-20T21:06:39.973Z,23.50
2018-09-20T21:09:08.247Z,23.40
2018-09-20T21:11:35.851Z,23.60
2018-09-20T21:14:03.616Z,23.70
2018-09-20T21:16:31.159Z,23.70
2018-09-20T21:18:58.864Z,23.70
2018-09-20T21:21:26.536Z,23.70
2018-09-20T21:23:54.126Z,23.60
2018-09-20T21:26:21.759Z,23.60
2018-09-20T21:28:49.723Z,23.60
2018-09-20T21:31:17.399Z,23.40
2018-09-20T21:33:45.322Z,23.50
2018-09-20T21:36:12.942Z,23.40
2018-09-20T21:38:40.679Z,23.20
2018-09-20T21:41:08.356Z,23.10
2018-09-20T21:43:36.090Z,23.10
2018-09-20T21:46:03.926Z,23.00
2018-09-20T21:48:31.855Z,22.90
2018-09-20T21:50:59.537Z,22.80
2018-09-20T21:53:27.122Z,22.70
2018-09-20T21:55:54.771Z,22.80
2018-09-20T21:58:22.547Z,22.70
2018-09-20T22:00:54.898Z,22.70
2018-09-20T22:03:22.622Z,22.60
2018-09-20T22:05:50.347Z,22.60
2018-09-20T22:08:18.006Z,22.60
2018-09-20T22:10:45.665Z,22.50
2018-09-20T22:13:13.319Z,22.50
2018-09-20T22:15:40.955Z,22.50
2018-09-20T22:18:08.536Z,22.40
2018-09-20T22:20:36.158Z,22.30
2018-09-20T22:23:03.840Z,22.20
2018-09-20T22:25:31.458Z,22.10
2018-09-20T22:27:59.163Z,21.70
2018-09-20T22:30:26.851Z,21.90
2018-09-20T22:32:54.487Z,21.90
2018-09-20T22:35:22.151Z,22.00
2018-09-20T22:37:49.775Z,21.70
2018-09-20T22:40:17.408Z,22.00
2018-09-20T22:42:45.027Z,21.80
2018-09-20T22:45:12.620Z,21.80
2018-09-20T22:47:40.267Z,21.70
2018-09-20T22:50:07.859Z,21.70
2018-09-20T22:52:35.479Z,21.80
2018-09-20T22:55:03.163Z,21.70
2018-09-20T22:57:30.715Z,21.70
2018-09-20T22:59:58.367Z,21.80
2018-09-20T23:02:26.031Z,21.60
2018-09-20T23:04:53.716Z,21.60
2018-09-20T23:07:21.401Z,21.50
2018-09-20T23:09:49.035Z,21.10
2018-09-20T23:12:16.674Z,21.40
2018-09-20T23:14:44.327Z,21.60
2018-09-20T23:17:11.995Z,21.30
2018-09-20T23:19:39.635Z,21.40
